Mc Alester Regional Airport
KMLC : now visible

Airfield :











YOU CAN JOIN US ON...

 
LOGIN :

Register | Disclaimer

   EN    FR    IT 

 









Legend :    VFR   Marginal VFR   IFR   Intensive IFR   Very Intensive IFR
Visi :
Ceiling :
>= 8 km
>= 3000ft
5 to 8 km
1000 to 3000 ft
1500m to 5 km
500 to 1000 ft
800 to 1500m
200 to 500 ft
< 800m
< 200 ft
Symbols :   Thunderstorms  Fog  Heavy snow  Heavy precipitations  Wind > 20 kt






- Airport Elevation : 770 ft


KMLC - Mc Alester Regional

CURRENT METAR :
  • 182031Z AUTO 21005KT 2 1/2SM RA BR SCT024 BKN038 OVC100 21/19 A2992 RMK AO2 LTG DSNT E-SW RAB1959 P0005 T02060189

EXPIRED METARs :
  • 182005Z AUTO 22008KT 10SM -RA SCT023 BKN043 OVC050 22/18 A2993 RMK AO2 LTG DSNT SE AND S RAB1959 P0000 T02220178
  • 181953Z AUTO 22012KT 10SM BKN023 BKN040 OVC085 23/18 A2993 RMK AO2 LTG DSNT SE AND S SLP128 T02280178
  • 181925Z AUTO 13004KT 10SM FEW023 SCT027 BKN090 23/17 A2991 RMK AO2 LTG DSNT S T02330172
  • 181853Z AUTO 13005KT 10SM OVC021 23/17 A2991 RMK AO2 SLP121 T02330172

TAF KMLC
Valid from the 18 at 18:00 until the 19 at 18:00 UTC


181720Z 1818/1918 VRB05KT P6SM OVC015
TEMPO 1818/1821 BKN025
FM182100 17006KT P6SM VCSH BKN025
TEMPO 1822/1902 3SM -TSRA BKN015CB
FM190200 16005KT P6SM BKN025
FM190500 16007KT P6SM VCTS BKN025CB
TEMPO 1906/1910 3SM -TSRA BKN015CB
FM191000 16007KT P6SM BKN015
FM191400 14005KT P6SM BKN025
KZFW FIR / North America



MET'MAP, your aeronautical weather chart ! - Copyright ORBIFLY December 2007 - Disclaimer

ORBIFLY MET'MAP TEAM :

Programming & Development : Alexandra Zaïnal
Concept & original design : Baudouin d'Aumeries
Assistance for programming : Marc-Olivier Méhu
Technical & hardware support : Manuel Goepfert

Contact : metmap@orbifly.com




SOURCES & CREDITS :

   NOAA       Earth
Advisory